Thunder radar more information blitzortung!


Radar de pluja more information rain snow radar


Visita la nostra xarxa de llocs de meteo:

Template documentation
and downloads

And another site



No particular awareness of the weather is required.    There are no Weather-warnings

Pagina Historial Weather Underground text

Diari Resum January 2, 2016 Unitats:  Mètric    Imperial   Tant
« Previous Dia
SegĂźent Dia »
Diari Setmana Mensual Anual Personalitzada
  Maxima: Minima: Media:
Temperatura: 15.3 °C 7.5 °C 11.9 °C
Punt de rosada: 7.5 °C -1.5 °C 2.9 °C
Humitat: 72 % 48 % 55 %
Wind Speed: 22.2 km/h 0.0 km/h 7.2 km/h
RĂ fegues de vent: 22.2 km/h - -
Vent:- - WSW
Pression baro: 1019.9 hPa 1015.8 hPa -
Precipitacions: 0.0 mm    
Historical Graphs
 
 
Dades de taula per January 2, 2016
Temps Temperatura Punt de rosada Pression baro Vent Wind Speed RĂ fegues de vent Humitat Rainfall Rate (Hourly)
10:58 12.2 °C 7.3 °C 1018.8 hPa WSW 6.1 km/h 6.1 km/h 72 % 0.0 mm
10:59 12.3 °C 7.4 °C 1018.8 hPa WSW 8.7 km/h 8.7 km/h 72 % 0.0 mm
11:04 12.4 °C 7.5 °C 1018.8 hPa SW 5.6 km/h 5.6 km/h 72 % 0.0 mm
11:09 12.3 °C 7.0 °C 1018.8 hPa West 13.0 km/h 13.0 km/h 70 % 0.0 mm
11:14 12.2 °C 6.9 °C 1018.8 hPa WSW 7.4 km/h 7.4 km/h 70 % 0.0 mm
11:19 12.0 °C 6.5 °C 1018.8 hPa WSW 11.1 km/h 11.1 km/h 69 % 0.0 mm
11:24 11.8 °C 6.1 °C 1018.8 hPa WNW 9.7 km/h 9.7 km/h 68 % 0.0 mm
11:29 11.7 °C 5.8 °C 1017.8 hPa WNW 9.3 km/h 9.3 km/h 67 % 0.0 mm
11:34 11.7 °C 6.0 °C 1017.8 hPa WNW 14.8 km/h 14.8 km/h 68 % 0.0 mm
11:39 11.6 °C 5.9 °C 1017.8 hPa NW 10.0 km/h 10.0 km/h 68 % 0.0 mm
11:44 11.5 °C 5.8 °C 1018.8 hPa West 14.0 km/h 14.0 km/h 68 % 0.0 mm
11:49 11.5 °C 5.8 °C 1018.8 hPa West 11.1 km/h 11.1 km/h 68 % 0.0 mm
11:54 11.4 °C 5.7 °C 1018.8 hPa SW 7.4 km/h 7.4 km/h 68 % 0.0 mm
11:59 11.4 °C 5.9 °C 1017.8 hPa West 9.3 km/h 9.3 km/h 69 % 0.0 mm
12:04 11.4 °C 5.9 °C 1017.8 hPa WSW 9.3 km/h 9.3 km/h 69 % 0.0 mm
12:09 11.5 °C 6.0 °C 1017.8 hPa WSW 7.9 km/h 7.9 km/h 69 % 0.0 mm
12:14 11.5 °C 6.0 °C 1018.8 hPa WSW 5.6 km/h 5.6 km/h 69 % 0.0 mm
12:19 11.5 °C 6.0 °C 1018.8 hPa WSW 6.1 km/h 6.1 km/h 69 % 0.0 mm
12:24 11.6 °C 6.1 °C 1018.8 hPa SW 5.6 km/h 5.6 km/h 69 % 0.0 mm
12:29 11.6 °C 6.3 °C 1017.8 hPa WSW 7.4 km/h 7.4 km/h 70 % 0.0 mm
12:34 11.7 °C 6.2 °C 1017.8 hPa WSW 7.4 km/h 7.4 km/h 69 % 0.0 mm
12:39 11.8 °C 6.1 °C 1017.8 hPa SW 4.2 km/h 4.2 km/h 68 % 0.0 mm
12:44 12.0 °C 6.3 °C 1017.8 hPa WSW 7.4 km/h 7.4 km/h 68 % 0.0 mm
12:49 12.1 °C 5.9 °C 1017.8 hPa WNW 9.5 km/h 9.5 km/h 66 % 0.0 mm
12:54 12.1 °C 5.7 °C 1017.8 hPa SW 16.9 km/h 16.9 km/h 65 % 0.0 mm
12:59 12.2 °C 5.6 °C 1017.8 hPa NNW 6.4 km/h 6.4 km/h 64 % 0.0 mm
13:04 12.2 °C 5.6 °C 1017.8 hPa NNE 9.3 km/h 9.3 km/h 64 % 0.0 mm
13:09 12.3 °C 5.4 °C 1017.8 hPa SSW 11.1 km/h 11.1 km/h 63 % 0.0 mm
13:14 12.5 °C 5.7 °C 1017.8 hPa NW 11.9 km/h 11.9 km/h 63 % 0.0 mm
13:19 12.6 °C 5.5 °C 1017.8 hPa SW 7.4 km/h 7.4 km/h 62 % 0.0 mm
13:24 12.8 °C 5.7 °C 1017.8 hPa SW 11.1 km/h 11.1 km/h 62 % 0.0 mm
13:29 12.8 °C 5.4 °C 1016.8 hPa South 16.7 km/h 16.7 km/h 61 % 0.0 mm
13:34 12.9 °C 5.3 °C 1016.8 hPa NNW 9.3 km/h 9.5 km/h 60 % 0.0 mm
13:39 13.2 °C 5.6 °C 1016.8 hPa WSW 1.9 km/h 2.6 km/h 60 % 0.0 mm
13:44 13.4 °C 5.8 °C 1015.8 hPa WNW 9.3 km/h 9.3 km/h 60 % 0.0 mm
13:49 13.4 °C 5.3 °C 1015.8 hPa NNW 7.4 km/h 7.4 km/h 58 % 0.0 mm
13:54 13.6 °C 5.7 °C 1015.8 hPa West 7.4 km/h 7.4 km/h 59 % 0.0 mm
13:55 13.6 °C 5.5 °C 1015.8 hPa West 7.4 km/h 7.4 km/h 58 % 0.0 mm
14:00 13.5 °C 5.2 °C 1017.8 hPa SW 7.4 km/h 7.4 km/h 57 % 0.0 mm
14:05 13.7 °C 5.3 °C 1017.8 hPa SW 9.3 km/h 9.3 km/h 57 % 0.0 mm
14:10 13.9 °C 5.5 °C 1017.8 hPa NW 7.4 km/h 7.4 km/h 57 % 0.0 mm
14:15 13.9 °C 5.5 °C 1017.8 hPa SW 1.9 km/h 3.9 km/h 57 % 0.0 mm
14:20 14.0 °C 5.6 °C 1017.8 hPa WNW 2.3 km/h 4.2 km/h 57 % 0.0 mm
14:25 14.1 °C 5.7 °C 1017.8 hPa SW 9.3 km/h 9.3 km/h 57 % 0.0 mm
14:30 14.2 °C 5.6 °C 1017.8 hPa SW 11.1 km/h 11.1 km/h 56 % 0.0 mm
14:35 14.4 °C 5.4 °C 1017.8 hPa WNW 9.3 km/h 9.3 km/h 55 % 0.0 mm
14:40 14.4 °C 5.2 °C 1017.8 hPa West 9.3 km/h 9.3 km/h 54 % 0.0 mm
14:45 14.5 °C 5.0 °C 1017.8 hPa ENE 22.2 km/h 22.2 km/h 53 % 0.0 mm
14:50 14.6 °C 4.8 °C 1017.8 hPa WSW 9.3 km/h 9.3 km/h 52 % 0.0 mm
14:55 15.0 °C 5.5 °C 1017.8 hPa WSW 3.7 km/h 3.7 km/h 53 % 0.0 mm
15:00 15.1 °C 5.3 °C 1017.8 hPa WSW 11.1 km/h 11.1 km/h 52 % 0.0 mm
15:05 15.2 °C 5.4 °C 1017.8 hPa NW 13.0 km/h 13.0 km/h 52 % 0.0 mm
15:10 15.3 °C 5.5 °C 1017.8 hPa WSW 9.3 km/h 9.3 km/h 52 % 0.0 mm
15:15 15.2 °C 5.1 °C 1017.8 hPa South 14.8 km/h 14.8 km/h 51 % 0.0 mm
15:20 15.2 °C 5.1 °C 1017.8 hPa WSW 9.3 km/h 9.3 km/h 51 % 0.0 mm
15:25 15.1 °C 5.1 °C 1017.8 hPa SW 14.8 km/h 14.8 km/h 51 % 0.0 mm
15:30 15.0 °C 4.9 °C 1017.8 hPa WSW 11.1 km/h 11.1 km/h 51 % 0.0 mm
15:35 15.0 °C 4.9 °C 1017.8 hPa SW 13.0 km/h 13.0 km/h 51 % 0.0 mm
15:40 15.1 °C 5.1 °C 1017.8 hPa West 9.5 km/h 9.5 km/h 51 % 0.0 mm
15:45 15.1 °C 5.1 °C 1017.8 hPa West 14.8 km/h 14.8 km/h 51 % 0.0 mm
15:50 15.1 °C 5.1 °C 1017.8 hPa SW 7.4 km/h 7.4 km/h 51 % 0.0 mm
15:55 15.2 °C 5.1 °C 1017.8 hPa WNW 11.1 km/h 11.1 km/h 51 % 0.0 mm
16:00 15.0 °C 4.7 °C 1017.8 hPa West 13.0 km/h 13.0 km/h 50 % 0.0 mm
16:05 15.0 °C 4.7 °C 1017.8 hPa SSE 16.7 km/h 16.7 km/h 50 % 0.0 mm
16:10 15.0 °C 4.7 °C 1017.8 hPa SW 7.4 km/h 7.4 km/h 50 % 0.0 mm
16:15 15.1 °C 4.7 °C 1016.8 hPa WSW 11.1 km/h 11.1 km/h 50 % 0.0 mm
16:20 15.0 °C 4.7 °C 1016.8 hPa WSW 7.4 km/h 7.4 km/h 50 % 0.0 mm
16:25 15.0 °C 4.7 °C 1016.8 hPa WSW 20.4 km/h 20.4 km/h 50 % 0.0 mm
16:30 14.7 °C 4.1 °C 1017.8 hPa West 9.3 km/h 9.3 km/h 49 % 0.0 mm
16:35 14.6 °C 4.3 °C 1017.8 hPa SW 5.6 km/h 5.6 km/h 50 % 0.0 mm
16:40 14.6 °C 4.3 °C 1017.8 hPa West 13.0 km/h 13.0 km/h 50 % 0.0 mm
16:45 14.4 °C 4.1 °C 1018.8 hPa SW 5.6 km/h 6.4 km/h 50 % 0.0 mm
16:50 14.4 °C 4.1 °C 1018.8 hPa WNW 5.6 km/h 5.6 km/h 50 % 0.0 mm
16:55 14.3 °C 4.0 °C 1018.8 hPa WSW 7.4 km/h 7.4 km/h 50 % 0.0 mm
17:00 14.2 °C 3.9 °C 1018.8 hPa SSW 7.4 km/h 7.4 km/h 50 % 0.0 mm
17:05 14.0 °C 3.7 °C 1018.8 hPa SSW 7.4 km/h 7.9 km/h 50 % 0.0 mm
17:10 13.9 °C 3.6 °C 1018.8 hPa SSW 7.4 km/h 7.9 km/h 50 % 0.0 mm
17:15 13.8 °C 3.6 °C 1018.8 hPa SSW 7.4 km/h 7.9 km/h 50 % 0.0 mm
17:20 13.5 °C 3.3 °C 1018.8 hPa WSW 10.0 km/h 10.0 km/h 50 % 0.0 mm
17:25 13.3 °C 3.1 °C 1018.8 hPa WSW 10.0 km/h 10.0 km/h 50 % 0.0 mm
17:30 13.1 °C 2.9 °C 1018.8 hPa WSW 10.0 km/h 10.0 km/h 50 % 0.0 mm
17:35 13.0 °C 2.8 °C 1018.8 hPa WSW 10.0 km/h 10.0 km/h 50 % 0.0 mm
17:40 12.9 °C 3.0 °C 1018.8 hPa WSW 10.0 km/h 10.0 km/h 51 % 0.0 mm
17:45 12.8 °C 2.9 °C 1017.8 hPa WSW 10.0 km/h 10.0 km/h 51 % 0.0 mm
17:50 12.7 °C 2.8 °C 1017.8 hPa WSW 10.0 km/h 10.0 km/h 51 % 0.0 mm
17:55 12.5 °C 2.6 °C 1017.8 hPa WSW 10.0 km/h 10.0 km/h 51 % 0.0 mm
18:00 12.4 °C 2.6 °C 1018.8 hPa WNW 3.7 km/h 3.7 km/h 51 % 0.0 mm
18:05 12.4 °C 2.6 °C 1018.8 hPa SW 5.6 km/h 5.6 km/h 51 % 0.0 mm
18:10 12.5 °C 2.6 °C 1018.8 hPa WNW 9.3 km/h 9.3 km/h 51 % 0.0 mm
18:15 12.3 °C 2.4 °C 1019.9 hPa WSW 5.8 km/h 5.8 km/h 51 % 0.0 mm
18:20 12.3 °C 2.4 °C 1019.9 hPa South 3.9 km/h 3.9 km/h 51 % 0.0 mm
18:25 12.2 °C 2.1 °C 1019.9 hPa WNW 9.3 km/h 9.3 km/h 50 % 0.0 mm
18:30 12.2 °C 1.8 °C 1019.9 hPa West 7.4 km/h 7.6 km/h 49 % 0.0 mm
18:35 12.1 °C 1.4 °C 1019.9 hPa West 20.4 km/h 20.4 km/h 48 % 0.0 mm
18:40 12.0 °C 1.3 °C 1019.9 hPa WSW 9.3 km/h 9.3 km/h 48 % 0.0 mm
18:45 11.9 °C 1.5 °C 1019.9 hPa SW 7.4 km/h 7.4 km/h 49 % 0.0 mm
18:50 11.8 °C 1.4 °C 1019.9 hPa NW 4.7 km/h 4.7 km/h 49 % 0.0 mm
18:55 11.7 °C 1.3 °C 1019.9 hPa WSW 7.4 km/h 7.4 km/h 49 % 0.0 mm
19:00 11.6 °C 1.2 °C 1019.9 hPa ESE 5.6 km/h 5.6 km/h 49 % 0.0 mm
19:05 11.5 °C 1.2 °C 1019.9 hPa WSW 5.6 km/h 5.6 km/h 49 % 0.0 mm
19:10 11.5 °C 1.2 °C 1019.9 hPa SW 6.1 km/h 6.1 km/h 49 % 0.0 mm
19:15 11.4 °C 0.8 °C 1019.9 hPa West 7.4 km/h 7.4 km/h 48 % 0.0 mm
19:20 11.3 °C 0.9 °C 1019.9 hPa SW 9.5 km/h 9.5 km/h 49 % 0.0 mm
19:25 11.2 °C 0.6 °C 1019.9 hPa WNW 3.7 km/h 3.7 km/h 48 % 0.0 mm
19:30 11.2 °C 0.6 °C 1019.9 hPa West 5.6 km/h 5.6 km/h 48 % 0.0 mm
19:35 11.0 °C 0.4 °C 1019.9 hPa SSE 5.6 km/h 5.6 km/h 48 % 0.0 mm
19:40 11.0 °C 0.4 °C 1019.9 hPa NE 5.6 km/h 5.6 km/h 48 % 0.0 mm
19:45 11.0 °C 0.4 °C 1019.9 hPa NW 5.6 km/h 5.6 km/h 48 % 0.0 mm
19:50 10.9 °C 0.6 °C 1019.9 hPa West 4.2 km/h 4.2 km/h 49 % 0.0 mm
19:55 10.8 °C 0.5 °C 1019.9 hPa ENE 3.7 km/h 3.7 km/h 49 % 0.0 mm
20:00 10.7 °C 0.4 °C 1019.9 hPa WSW 6.9 km/h 6.9 km/h 49 % 0.0 mm
20:05 10.7 °C 0.4 °C 1019.9 hPa SW 3.9 km/h 5.0 km/h 49 % 0.0 mm
20:10 10.6 °C 0.3 °C 1019.9 hPa SW 1.9 km/h 2.3 km/h 49 % 0.0 mm
20:15 10.5 °C 0.2 °C 1019.9 hPa West 3.7 km/h 3.7 km/h 49 % 0.0 mm
20:20 10.5 °C 0.2 °C 1019.9 hPa South 7.4 km/h 7.4 km/h 49 % 0.0 mm
20:25 10.6 °C 0.1 °C 1019.9 hPa WSW 9.3 km/h 9.3 km/h 48 % 0.0 mm
20:30 10.6 °C 0.3 °C 1019.9 hPa SW 5.6 km/h 5.6 km/h 49 % 0.0 mm
20:35 10.4 °C 0.1 °C 1019.9 hPa WNW 5.8 km/h 5.8 km/h 49 % 0.0 mm
20:40 10.4 °C 0.1 °C 1019.9 hPa WSW 4.2 km/h 4.2 km/h 49 % 0.0 mm
20:45 10.3 °C 0.1 °C 1018.8 hPa WSW 3.7 km/h 3.7 km/h 49 % 0.0 mm
20:50 10.2 °C -0.1 °C 1018.8 hPa WNW 4.7 km/h 4.7 km/h 49 % 0.0 mm
20:55 10.2 °C -0.1 °C 1018.8 hPa SW 3.7 km/h 3.7 km/h 49 % 0.0 mm
21:00 10.2 °C 0.2 °C 1019.9 hPa SW 3.7 km/h 3.7 km/h 50 % 0.0 mm
21:05 10.1 °C 0.1 °C 1019.9 hPa SW 3.7 km/h 3.7 km/h 50 % 0.0 mm
21:10 10.1 °C 0.1 °C 1019.9 hPa SW 3.7 km/h 3.7 km/h 50 % 0.0 mm
21:15 10.0 °C 0.1 °C 1019.9 hPa SW 3.7 km/h 3.7 km/h 50 % 0.0 mm
21:20 9.9 °C -0.1 °C 1019.9 hPa SW 3.7 km/h 3.7 km/h 50 % 0.0 mm
21:25 9.8 °C -0.2 °C 1019.9 hPa SW 3.7 km/h 3.7 km/h 50 % 0.0 mm
21:30 9.6 °C -0.3 °C 1019.9 hPa WSW 3.7 km/h   50 % 0.0 mm
21:35 9.5 °C -0.4 °C 1019.9 hPa SSE 3.9 km/h   50 % 0.0 mm
21:40 9.4 °C -0.5 °C 1019.9 hPa WSW 7.4 km/h   50 % 0.0 mm
21:45 9.5 °C -0.2 °C 1019.9 hPa SW 4.7 km/h 4.7 km/h 51 % 0.0 mm
21:50 9.5 °C -0.2 °C 1019.9 hPa SW 4.7 km/h 4.7 km/h 51 % 0.0 mm
21:55 9.5 °C -0.2 °C 1019.9 hPa WSW 3.7 km/h 3.7 km/h 51 % 0.0 mm
22:00 9.4 °C -0.2 °C 1019.9 hPa WSW 2.6 km/h 2.6 km/h 51 % 0.0 mm
22:05 9.4 °C -0.2 °C 1019.9 hPa WSW 2.6 km/h 2.6 km/h 51 % 0.0 mm
22:10 9.3 °C -0.3 °C 1019.9 hPa WSW 2.6 km/h 2.6 km/h 51 % 0.0 mm
22:15 9.2 °C -0.4 °C 1019.9 hPa WSW 2.6 km/h 2.6 km/h 51 % 0.0 mm
22:20 9.1 °C -0.5 °C 1019.9 hPa SSE 2.3 km/h   51 % 0.0 mm
22:25 9.1 °C -0.5 °C 1019.9 hPa SSE 2.3 km/h   51 % 0.0 mm
22:30 9.0 °C -0.6 °C 1018.8 hPa SSE 2.3 km/h   51 % 0.0 mm
22:35 8.9 °C -0.7 °C 1018.8 hPa SSE 2.3 km/h   51 % 0.0 mm
22:40 8.8 °C -0.6 °C 1018.8 hPa SSE 2.3 km/h   52 % 0.0 mm
22:45 8.9 °C -0.4 °C 1019.9 hPa SSE 2.3 km/h   52 % 0.0 mm
22:50 8.8 °C -0.6 °C 1019.9 hPa SSE 2.3 km/h   52 % 0.0 mm
22:55 8.8 °C -0.6 °C 1019.9 hPa SSE 2.3 km/h   52 % 0.0 mm
23:00 8.7 °C -0.6 °C 1019.9 hPa SSE 2.3 km/h   52 % 0.0 mm
23:05 8.3 °C -1.0 °C 1019.9 hPa SSE 2.3 km/h   52 % 0.0 mm
23:10 8.3 °C -1.0 °C 1019.9 hPa SSE 2.3 km/h   52 % 0.0 mm
23:15 8.2 °C -1.1 °C 1019.9 hPa SSE 2.3 km/h   52 % 0.0 mm
23:20 8.2 °C -0.8 °C 1019.9 hPa SSE 2.3 km/h   53 % 0.0 mm
23:25 8.2 °C -0.8 °C 1019.9 hPa WNW 1.9 km/h   53 % 0.0 mm
23:30 8.1 °C -0.9 °C 1019.9 hPa Calm     53 % 0.0 mm
23:35 8.0 °C -1.0 °C 1019.9 hPa Calm     53 % 0.0 mm
23:40 7.6 °C -1.4 °C 1019.9 hPa Calm     53 % 0.0 mm
23:45 7.5 °C -1.5 °C 1019.9 hPa Calm     53 % 0.0 mm
23:50 7.7 °C -1.3 °C 1019.9 hPa Calm     53 % 0.0 mm
Meteo Sesrovires
Elogis d' Weather Underground - 3.25 mb

Guio original per  Jim McMurry - jmcmurry@mwt.net Adaptat per a la plantilla per  Wim van der Kuil - Leuven-Template.eu

Trobareu la nostra informacio del temps tambe a:

Weather Underground

AWEKAS